createdAt,value
2022-08-04T00:00:07.672Z,8.00
2022-08-04T00:03:11.606Z,8.10
2022-08-04T00:05:55.382Z,8.20
2022-08-04T00:08:45.659Z,8.10
2022-08-04T00:11:24.190Z,7.50
2022-08-04T00:14:03.559Z,7.70
2022-08-04T00:16:40.237Z,7.80
2022-08-04T00:19:18.167Z,7.80
2022-08-04T00:21:57.268Z,7.30
2022-08-04T00:24:31.212Z,7.10
2022-08-04T00:27:04.128Z,6.90
2022-08-04T00:29:36.812Z,7.10
2022-08-04T00:32:09.936Z,7.10
2022-08-04T00:34:42.558Z,7.00
2022-08-04T00:37:15.995Z,6.70
2022-08-04T00:39:50.364Z,6.90
2022-08-04T00:42:49.346Z,7.10
2022-08-04T00:46:17.124Z,6.50
2022-08-04T00:49:12.062Z,6.70
2022-08-04T00:52:32.787Z,6.80
2022-08-04T00:55:03.305Z,6.60
2022-08-04T00:58:52.097Z,6.70
2022-08-04T01:01:51.239Z,6.60
2022-08-04T01:04:42.391Z,5.90
2022-08-04T01:07:33.065Z,6.40
2022-08-04T01:10:17.358Z,6.50
2022-08-04T01:13:15.603Z,6.00
2022-08-04T01:18:45.852Z,6.40
2022-08-04T01:21:48.468Z,5.70
2022-08-04T01:24:31.141Z,5.60
2022-08-04T01:27:08.164Z,5.40
2022-08-04T01:29:48.836Z,5.90
2022-08-04T01:32:29.461Z,5.80
2022-08-04T01:35:05.485Z,5.80
2022-08-04T01:37:51.077Z,6.30
2022-08-04T01:40:27.911Z,5.30
2022-08-04T01:45:34.858Z,5.40
2022-08-04T01:48:08.580Z,5.40
2022-08-04T01:50:44.945Z,5.50
2022-08-04T01:53:18.259Z,5.50
2022-08-04T01:55:54.704Z,4.90
2022-08-04T01:58:31.075Z,5.50
2022-08-04T02:01:08.469Z,5.20
2022-08-04T02:04:18.536Z,5.00
2022-08-04T02:06:42.092Z,5.20
2022-08-04T02:09:24.192Z,4.70
2022-08-04T02:12:15.744Z,5.20
2022-08-04T02:14:57.624Z,4.90
2022-08-04T02:17:33.679Z,5.00
2022-08-04T02:20:13.747Z,4.50
2022-08-04T02:22:54.204Z,5.10
2022-08-04T02:25:29.052Z,4.80
2022-08-04T02:28:23.234Z,4.50
2022-08-04T02:31:04.934Z,5.10
2022-08-04T02:33:40.531Z,4.30
2022-08-04T02:36:18.188Z,5.00
2022-08-04T02:38:58.058Z,5.00
2022-08-04T02:41:32.163Z,4.50
2022-08-04T02:44:06.045Z,4.50
2022-08-04T02:46:40.161Z,4.90
2022-08-04T02:49:13.513Z,4.80
2022-08-04T02:51:46.985Z,4.80
2022-08-04T02:54:32.571Z,4.70
2022-08-04T02:57:09.987Z,4.60
2022-08-04T02:59:52.039Z,4.10
2022-08-04T03:02:30.479Z,4.60
2022-08-04T03:05:09.033Z,4.50
2022-08-04T03:08:06.988Z,4.40
2022-08-04T03:14:09.569Z,4.50
2022-08-04T03:17:14.563Z,4.30
2022-08-04T03:20:25.314Z,4.50
2022-08-04T03:23:49.673Z,4.20
2022-08-04T03:26:55.588Z,4.30
2022-08-04T03:30:10.007Z,4.40
2022-08-04T03:33:16.965Z,4.60
2022-08-04T03:36:20.083Z,4.40
2022-08-04T03:39:27.812Z,4.20
2022-08-04T03:42:29.034Z,4.50
2022-08-04T03:45:34.278Z,4.50
2022-08-04T03:48:33.821Z,4.20
2022-08-04T03:51:37.429Z,4.20
2022-08-04T03:54:48.472Z,4.10
2022-08-04T03:57:47.337Z,4.00
2022-08-04T04:00:21.025Z,3.90
2022-08-04T04:03:28.194Z,3.90
2022-08-04T04:06:44.056Z,3.80
2022-08-04T04:09:57.792Z,4.20
2022-08-04T04:13:04.431Z,4.20
2022-08-04T04:16:16.943Z,4.40
2022-08-04T04:19:22.574Z,4.30
2022-08-04T04:22:19.137Z,5.20
2022-08-04T04:25:04.681Z,4.10
2022-08-04T04:27:52.877Z,4.20
2022-08-04T04:30:31.723Z,3.90
2022-08-04T04:33:18.416Z,4.00
2022-08-04T04:36:02.745Z,4.70
2022-08-04T04:38:52.325Z,4.40
2022-08-04T04:41:54.782Z,4.40
2022-08-04T04:44:50.050Z,4.90
2022-08-04T04:48:07.036Z,4.20
2022-08-04T04:50:37.600Z,3.80
2022-08-04T04:53:19.492Z,4.30
2022-08-04T04:55:57.921Z,5.20
2022-08-04T04:58:32.969Z,4.50
2022-08-04T05:01:41.469Z,4.20
2022-08-04T05:04:30.565Z,5.50
2022-08-04T05:07:24.099Z,4.10
2022-08-04T05:10:08.975Z,4.60
2022-08-04T05:14:37.971Z,4.90
2022-08-04T05:16:18.637Z,4.70
2022-08-04T05:19:00.028Z,4.80
2022-08-04T05:21:52.561Z,4.60
2022-08-04T05:24:26.271Z,4.10
2022-08-04T05:27:03.177Z,3.90
2022-08-04T05:29:41.014Z,4.00
2022-08-04T05:32:16.172Z,3.60
2022-08-04T05:34:55.167Z,3.10
2022-08-04T05:37:30.323Z,3.40
2022-08-04T05:40:06.472Z,3.40
2022-08-04T05:42:41.646Z,3.50
2022-08-04T05:45:14.973Z,3.10
2022-08-04T05:47:47.909Z,3.50
2022-08-04T05:50:21.729Z,3.40
2022-08-04T05:52:59.921Z,3.30
2022-08-04T05:55:57.541Z,3.50
2022-08-04T05:58:28.193Z,3.80
2022-08-04T06:01:02.264Z,3.40
2022-08-04T06:03:35.558Z,3.20
2022-08-04T06:06:09.540Z,3.50
2022-08-04T06:08:42.268Z,3.60
2022-08-04T06:11:15.738Z,3.60
2022-08-04T06:13:55.785Z,3.60
2022-08-04T06:16:32.868Z,3.60
2022-08-04T06:19:59.045Z,3.70
2022-08-04T06:22:07.486Z,3.70
2022-08-04T06:24:41.475Z,4.20
2022-08-04T06:27:14.494Z,3.40
2022-08-04T06:29:50.725Z,3.40
2022-08-04T06:32:35.690Z,3.60
2022-08-04T06:35:12.202Z,3.30
2022-08-04T06:37:45.711Z,3.60
2022-08-04T06:40:30.822Z,3.20
2022-08-04T06:43:07.314Z,3.80
2022-08-04T06:45:41.519Z,3.40
2022-08-04T06:48:17.742Z,3.50
2022-08-04T06:51:24.428Z,3.10
2022-08-04T06:53:47.051Z,2.70
2022-08-04T06:56:21.067Z,3.10
2022-08-04T06:58:54.870Z,3.00
2022-08-04T07:01:29.101Z,2.90
2022-08-04T07:04:02.122Z,3.10
2022-08-04T07:06:35.209Z,3.00
2022-08-04T07:09:09.581Z,2.80
2022-08-04T07:11:44.398Z,2.90
2022-08-04T07:14:19.044Z,2.90
2022-08-04T07:16:53.124Z,2.70
2022-08-04T07:19:25.749Z,2.60
2022-08-04T07:22:06.449Z,2.80
2022-08-04T07:24:55.830Z,2.80
2022-08-04T07:27:47.573Z,2.50
2022-08-04T07:30:24.903Z,2.70
2022-08-04T07:32:57.690Z,2.40
2022-08-04T07:36:05.027Z,2.40
2022-08-04T07:38:27.455Z,2.50
2022-08-04T07:41:03.963Z,2.50
2022-08-04T07:43:37.528Z,2.60
2022-08-04T07:46:12.093Z,2.60
2022-08-04T07:48:44.540Z,2.80
2022-08-04T07:51:17.310Z,2.40
2022-08-04T07:53:54.851Z,2.80
2022-08-04T07:56:29.299Z,2.30
2022-08-04T07:59:02.806Z,1.90
2022-08-04T08:01:36.101Z,2.30
2022-08-04T08:04:11.705Z,2.20
2022-08-04T08:09:20.586Z,1.90
2022-08-04T08:12:38.442Z,2.30
2022-08-04T08:14:47.568Z,2.10
2022-08-04T08:17:20.315Z,2.10
2022-08-04T08:19:52.773Z,2.00
2022-08-04T08:22:25.220Z,1.80
2022-08-04T08:24:57.482Z,2.20
2022-08-04T08:27:30.001Z,2.00
2022-08-04T08:30:02.401Z,2.10
2022-08-04T08:32:35.585Z,2.00
2022-08-04T08:35:09.418Z,2.10
2022-08-04T08:37:49.628Z,2.10
2022-08-04T08:40:40.462Z,2.70
2022-08-04T08:44:04.443Z,1.90
2022-08-04T08:46:50.422Z,2.10
2022-08-04T08:50:04.985Z,2.30
2022-08-04T08:53:02.487Z,1.90
2022-08-04T08:55:44.456Z,1.80
2022-08-04T08:58:31.001Z,1.90
2022-08-04T09:01:24.040Z,2.00
2022-08-04T09:04:22.815Z,1.80
2022-08-04T09:07:14.025Z,1.70
2022-08-04T09:09:54.676Z,1.60
2022-08-04T09:12:34.701Z,2.00
2022-08-04T09:15:15.170Z,2.00
2022-08-04T09:17:53.318Z,1.90
2022-08-04T09:20:32.748Z,2.00
2022-08-04T09:23:14.772Z,2.20
2022-08-04T09:25:52.685Z,2.00
2022-08-04T09:28:52.159Z,2.10
2022-08-04T09:31:25.581Z,1.90
2022-08-04T09:34:05.959Z,2.00
2022-08-04T09:36:48.807Z,2.00
2022-08-04T09:39:30.667Z,1.80
2022-08-04T09:42:15.290Z,1.90
2022-08-04T09:45:05.810Z,2.10
2022-08-04T09:47:48.125Z,1.90
2022-08-04T09:50:31.721Z,1.90
2022-08-04T09:53:32.039Z,2.30
2022-08-04T09:56:16.014Z,2.10
2022-08-04T09:58:58.566Z,2.50
2022-08-04T10:01:32.728Z,2.20
2022-08-04T10:04:10.063Z,2.50
2022-08-04T10:07:00.105Z,2.00
2022-08-04T10:09:59.804Z,2.30
2022-08-04T10:12:40.112Z,2.20
2022-08-04T10:15:18.575Z,2.20
2022-08-04T10:18:11.021Z,2.20
2022-08-04T10:21:15.593Z,2.30
2022-08-04T10:24:10.976Z,2.40
2022-08-04T10:26:57.190Z,2.10
2022-08-04T10:32:11.488Z,1.90
2022-08-04T10:34:56.024Z,2.40
2022-08-04T10:37:58.983Z,2.30
2022-08-04T10:40:37.977Z,2.50
2022-08-04T10:43:32.524Z,2.20
2022-08-04T10:46:09.907Z,2.20
2022-08-04T10:48:51.680Z,2.50
2022-08-04T10:51:29.349Z,2.20
2022-08-04T10:54:04.689Z,2.80
2022-08-04T10:56:43.037Z,2.40
2022-08-04T10:59:21.530Z,2.50
2022-08-04T11:02:02.761Z,2.70
2022-08-04T11:04:47.849Z,3.00
2022-08-04T11:07:21.138Z,2.80
2022-08-04T11:09:54.559Z,2.90
2022-08-04T11:12:29.346Z,2.90
2022-08-04T11:15:07.542Z,3.10
2022-08-04T11:17:43.149Z,2.90
2022-08-04T11:20:37.682Z,2.90
2022-08-04T11:23:13.015Z,2.70
2022-08-04T11:25:54.177Z,3.10
2022-08-04T11:28:38.916Z,2.80
2022-08-04T11:31:15.920Z,3.00
2022-08-04T11:33:53.636Z,3.10
2022-08-04T11:36:35.824Z,3.00
2022-08-04T11:39:12.779Z,3.10
2022-08-04T11:41:57.999Z,3.20
2022-08-04T11:44:36.270Z,3.10
2022-08-04T11:47:20.612Z,3.00
2022-08-04T11:50:02.792Z,3.00
2022-08-04T11:52:39.479Z,2.80
2022-08-04T11:57:45.814Z,2.90
2022-08-04T12:00:29.729Z,3.10
2022-08-04T12:03:28.419Z,3.20
2022-08-04T12:06:15.444Z,3.00
2022-08-04T12:09:10.409Z,3.10
2022-08-04T12:11:52.995Z,3.10
2022-08-04T12:14:45.093Z,2.90
2022-08-04T12:17:23.816Z,3.10
2022-08-04T12:20:04.950Z,2.90
2022-08-04T12:22:56.745Z,2.90
2022-08-04T12:25:36.023Z,2.60
2022-08-04T12:28:12.991Z,3.00
2022-08-04T12:30:59.776Z,2.90
2022-08-04T12:34:04.190Z,2.80
2022-08-04T12:36:39.217Z,3.20
2022-08-04T12:39:18.125Z,3.10
2022-08-04T12:41:59.646Z,2.80
2022-08-04T12:44:39.344Z,2.80
2022-08-04T12:47:27.776Z,2.80
2022-08-04T12:50:05.559Z,2.80
2022-08-04T12:53:06.909Z,3.20
2022-08-04T12:55:39.974Z,2.40
2022-08-04T12:58:42.406Z,2.80
2022-08-04T13:02:07.411Z,2.80
2022-08-04T13:04:17.074Z,3.10
2022-08-04T13:06:58.231Z,2.90
2022-08-04T13:09:34.381Z,2.70
2022-08-04T13:12:14.308Z,3.00
2022-08-04T13:14:50.535Z,3.10
2022-08-04T13:17:27.988Z,3.00
2022-08-04T13:20:02.088Z,2.80
2022-08-04T13:22:35.653Z,2.70
2022-08-04T13:26:44.161Z,2.80
2022-08-04T13:28:17.441Z,2.80
2022-08-04T13:30:56.942Z,2.50
2022-08-04T13:33:35.367Z,2.90
2022-08-04T13:36:08.900Z,2.60
2022-08-04T13:38:52.834Z,2.90
2022-08-04T13:41:30.947Z,2.40
2022-08-04T13:44:18.534Z,2.40
2022-08-04T13:46:54.482Z,2.50
2022-08-04T13:49:42.736Z,2.90
2022-08-04T13:52:18.745Z,2.50
2022-08-04T13:54:53.558Z,2.60
2022-08-04T13:57:31.608Z,2.50
2022-08-04T14:00:07.779Z,2.80
2022-08-04T14:02:46.144Z,2.80
2022-08-04T14:05:27.858Z,2.50
2022-08-04T14:08:10.016Z,2.60
2022-08-04T14:10:42.534Z,2.50
2022-08-04T14:13:14.681Z,2.70
2022-08-04T14:16:01.408Z,2.40
2022-08-04T14:18:36.284Z,2.90
2022-08-04T14:21:11.893Z,2.80
2022-08-04T14:23:51.049Z,2.70
2022-08-04T14:26:32.769Z,2.60
2022-08-04T14:29:26.547Z,2.60
2022-08-04T14:32:14.144Z,2.40
2022-08-04T14:34:48.475Z,2.70
2022-08-04T14:37:23.210Z,2.90
2022-08-04T14:40:08.919Z,3.10
2022-08-04T14:42:55.856Z,2.80
2022-08-04T14:45:34.357Z,2.50
2022-08-04T14:48:11.126Z,2.70
2022-08-04T14:50:45.111Z,2.80
2022-08-04T14:53:20.038Z,2.50
2022-08-04T14:55:54.600Z,2.60
2022-08-04T14:58:35.157Z,2.30
2022-08-04T15:01:13.002Z,2.40
2022-08-04T15:03:50.487Z,2.50
2022-08-04T15:06:28.545Z,2.40
2022-08-04T15:09:02.484Z,2.20
2022-08-04T15:11:37.896Z,2.40
2022-08-04T15:17:01.972Z,2.50
2022-08-04T15:19:34.122Z,2.50
2022-08-04T15:22:06.790Z,2.40
2022-08-04T15:24:39.397Z,2.20
2022-08-04T15:27:13.820Z,2.40
2022-08-04T15:29:59.251Z,2.10
2022-08-04T15:32:35.972Z,2.50
2022-08-04T15:35:13.852Z,2.30
2022-08-04T15:37:55.993Z,2.40
2022-08-04T15:40:33.407Z,2.30
2022-08-04T15:43:24.782Z,2.20
2022-08-04T15:46:37.241Z,2.50
2022-08-04T15:48:53.298Z,2.50
2022-08-04T15:51:34.360Z,2.20
2022-08-04T15:54:27.861Z,2.40
2022-08-04T15:57:05.048Z,2.40
2022-08-04T16:00:12.873Z,2.30
2022-08-04T16:02:47.319Z,2.40
2022-08-04T16:05:39.587Z,2.40
2022-08-04T16:08:21.055Z,2.40
2022-08-04T16:10:53.787Z,2.30
2022-08-04T16:13:27.044Z,2.40
2022-08-04T16:16:03.753Z,2.30
2022-08-04T16:18:46.252Z,2.40
2022-08-04T16:21:23.831Z,2.50
2022-08-04T16:24:13.904Z,2.30
2022-08-04T16:26:55.137Z,2.50
2022-08-04T16:29:30.307Z,2.50
2022-08-04T16:32:23.428Z,2.40
2022-08-04T16:35:04.316Z,2.20
2022-08-04T16:37:39.105Z,2.30
2022-08-04T16:40:36.562Z,2.30
2022-08-04T16:43:13.494Z,2.10
2022-08-04T16:45:55.324Z,2.30
2022-08-04T16:48:29.370Z,2.30
2022-08-04T16:51:06.779Z,2.50
2022-08-04T16:54:04.125Z,2.80
2022-08-04T16:56:35.845Z,2.20
2022-08-04T16:59:13.852Z,2.30
2022-08-04T17:01:51.996Z,2.20
2022-08-04T17:04:31.625Z,2.30
2022-08-04T17:07:06.315Z,2.50
2022-08-04T17:09:38.628Z,2.30
2022-08-04T17:12:11.727Z,1.90
2022-08-04T17:14:47.772Z,2.30
2022-08-04T17:17:25.607Z,2.70
2022-08-04T17:20:17.898Z,2.20
2022-08-04T17:22:50.046Z,2.30
2022-08-04T17:25:22.123Z,2.40
2022-08-04T17:28:28.501Z,2.50
2022-08-04T17:31:03.201Z,2.70
2022-08-04T17:33:54.695Z,2.80
2022-08-04T17:36:30.156Z,2.50
2022-08-04T17:39:17.058Z,2.20
2022-08-04T17:41:50.065Z,2.80
2022-08-04T17:44:22.351Z,2.90
2022-08-04T17:46:54.786Z,2.50
2022-08-04T17:49:28.685Z,2.80
2022-08-04T17:52:05.862Z,2.70
2022-08-04T17:54:41.141Z,2.50
2022-08-04T17:57:21.661Z,2.30
2022-08-04T18:00:00.037Z,2.60
2022-08-04T18:02:35.102Z,2.70
2022-08-04T18:05:11.695Z,2.40
2022-08-04T18:08:38.513Z,2.80
2022-08-04T18:10:55.439Z,2.60
2022-08-04T18:13:29.295Z,2.70
2022-08-04T18:16:05.887Z,2.30
2022-08-04T18:18:48.993Z,2.30
2022-08-04T18:21:22.911Z,2.40
2022-08-04T18:23:55.277Z,2.50
2022-08-04T18:26:33.096Z,2.20
2022-08-04T18:29:05.810Z,2.50
2022-08-04T18:31:39.497Z,2.20
2022-08-04T18:34:14.352Z,2.70
2022-08-04T18:36:57.279Z,2.40
2022-08-04T18:40:17.300Z,2.40
2022-08-04T18:42:23.713Z,2.40
2022-08-04T18:44:58.376Z,2.60
2022-08-04T18:47:32.796Z,2.50
2022-08-04T18:53:17.040Z,2.50
2022-08-04T18:55:58.034Z,2.80
2022-08-04T18:58:30.613Z,3.70
2022-08-04T19:01:02.680Z,2.30
2022-08-04T19:03:49.404Z,2.40
2022-08-04T19:06:27.502Z,2.60
2022-08-04T19:08:59.768Z,2.50
2022-08-04T19:11:38.307Z,3.30
2022-08-04T19:14:25.710Z,2.30
2022-08-04T19:16:58.385Z,2.40
2022-08-04T19:19:47.383Z,2.40
2022-08-04T19:22:35.629Z,2.60
2022-08-04T19:25:10.077Z,2.40
2022-08-04T19:27:42.285Z,2.60
2022-08-04T19:30:15.271Z,2.90
2022-08-04T19:32:49.746Z,2.80
2022-08-04T19:35:22.274Z,2.70
2022-08-04T19:37:57.922Z,2.70
2022-08-04T19:40:34.188Z,2.50
2022-08-04T19:43:14.474Z,2.60
2022-08-04T19:45:47.885Z,2.80
2022-08-04T19:48:20.381Z,2.60
2022-08-04T19:50:52.888Z,3.00
2022-08-04T19:53:36.944Z,3.10
2022-08-04T19:56:10.490Z,2.70
2022-08-04T19:58:48.192Z,3.40
2022-08-04T20:01:33.448Z,3.10
2022-08-04T20:04:13.256Z,2.80
2022-08-04T20:06:45.935Z,2.90
2022-08-04T20:09:25.406Z,2.90
2022-08-04T20:11:59.900Z,2.90
2022-08-04T20:14:33.455Z,3.40
2022-08-04T20:17:10.339Z,2.70
2022-08-04T20:19:51.331Z,3.20
2022-08-04T20:22:51.770Z,2.90
2022-08-04T20:25:27.237Z,2.90
2022-08-04T20:28:09.424Z,2.90
2022-08-04T20:30:58.021Z,3.30
2022-08-04T20:33:30.251Z,3.30
2022-08-04T20:36:05.237Z,2.90
2022-08-04T20:38:38.994Z,2.60
2022-08-04T20:41:11.256Z,2.70
2022-08-04T20:43:46.619Z,2.80
2022-08-04T20:46:29.330Z,2.50
2022-08-04T20:49:02.029Z,2.50
2022-08-04T20:51:40.193Z,3.00
2022-08-04T20:54:16.498Z,3.20
2022-08-04T20:56:55.531Z,3.10
2022-08-04T20:59:29.170Z,2.80
2022-08-04T21:02:01.399Z,2.80
2022-08-04T21:04:48.522Z,3.30
2022-08-04T21:07:22.195Z,3.30
2022-08-04T21:09:55.071Z,3.20
2022-08-04T21:12:29.109Z,3.00
2022-08-04T21:15:13.957Z,3.20
2022-08-04T21:17:59.455Z,3.50
2022-08-04T21:23:28.897Z,3.00
2022-08-04T21:26:06.779Z,3.20
2022-08-04T21:28:43.319Z,3.70
2022-08-04T21:31:22.146Z,3.70
2022-08-04T21:33:54.559Z,3.90
2022-08-04T21:36:27.411Z,3.40
2022-08-04T21:39:00.070Z,3.40
2022-08-04T21:41:32.329Z,3.30
2022-08-04T21:44:04.808Z,3.50
2022-08-04T21:46:44.572Z,3.70
2022-08-04T21:49:16.875Z,4.20
2022-08-04T21:51:59.646Z,3.50
2022-08-04T21:54:33.570Z,3.60
2022-08-04T21:57:06.228Z,3.90
2022-08-04T21:59:45.147Z,4.00
2022-08-04T22:02:18.523Z,3.80
2022-08-04T22:04:52.783Z,3.90
2022-08-04T22:07:25.181Z,3.90
2022-08-04T22:10:18.657Z,3.70
2022-08-04T22:13:07.326Z,4.00
2022-08-04T22:16:03.917Z,3.90
2022-08-04T22:18:31.994Z,4.00
2022-08-04T22:24:00.577Z,3.60
2022-08-04T22:26:34.636Z,3.90
2022-08-04T22:29:07.040Z,4.00
2022-08-04T22:31:55.680Z,4.00
2022-08-04T22:34:30.482Z,3.80
2022-08-04T22:37:12.320Z,3.60
2022-08-04T22:39:56.954Z,3.90
2022-08-04T22:42:29.238Z,3.90
2022-08-04T22:45:03.773Z,3.90
2022-08-04T22:47:40.193Z,4.00
2022-08-04T22:50:27.557Z,4.00
2022-08-04T22:52:59.954Z,4.00
2022-08-04T22:56:06.739Z,3.80
2022-08-04T22:58:28.634Z,4.20
2022-08-04T23:01:01.195Z,4.10
2022-08-04T23:03:38.541Z,4.10
2022-08-04T23:06:12.865Z,4.50
2022-08-04T23:08:48.392Z,4.50
2022-08-04T23:11:21.086Z,5.00
2022-08-04T23:13:53.120Z,4.70
2022-08-04T23:16:25.322Z,4.70
2022-08-04T23:19:00.342Z,4.50
2022-08-04T23:21:47.313Z,4.70
2022-08-04T23:24:20.390Z,4.40
2022-08-04T23:26:52.664Z,4.10
2022-08-04T23:29:24.902Z,4.40
2022-08-04T23:32:00.464Z,4.00
2022-08-04T23:34:32.840Z,4.70
2022-08-04T23:37:04.908Z,5.10
2022-08-04T23:40:03.798Z,4.60
2022-08-04T23:42:29.064Z,4.90
2022-08-04T23:45:01.357Z,4.30
2022-08-04T23:48:16.240Z,4.70
2022-08-04T23:50:25.663Z,4.90
2022-08-04T23:52:58.370Z,4.70
2022-08-04T23:55:32.217Z,4.90
2022-08-04T23:58:19.114Z,4.80
